Bettendorf, Iowa
Current Conditions -  °F | °C
As of 1:52 AM on Monday 24 Nov 2014 (Local Time) from KMLI Reporting Station
Overcast Overcast  
Wind Chill: 34°   Ceiling: 800
Heat Index: 41°   Visibility: 7mi
Dew Point: 38°   Wind: 13mph
Humidity: 89%   Direction: 290°WNW
Pressure: 29.17"   Gusts: 23mph
Location:  41.53°N, 90.49°W
Report Text: KMLI 240752Z AUTO 29011G20KT 7SM OVC008 05/03 A2917 RMK AO2 SLP879 T00500033 $
Loading
Personal Weather Stations






























Interactive Weather Map New forecast layout! Learn more

10-Day Weather Forecast

Advertisements
Track Severe Weather on mobile